Time;durP1;ratioP1;P1;durP2;ratioP2;P2;SDS_P1;SDS_P2;PMS_P1;PMS_P2;Temp;Humidity;BMP_temperature;BMP_pressure;BME280_temperature;BME280_humidity;BME280_pressure;Samples;Min_cycle;Max_cycle;Signal;HPM_P1;HPM_P2
2023/07/28 00:00:48;;;;;;;2.00;1.10;;;;;;;20.93;55.51;100816.21;107148;1263;25366;-49
2023/07/28 00:03:14;;;;;;;1.20;1.10;;;;;;;20.91;55.53;100818.14;107140;1251;25366;-48
2023/07/28 00:05:41;;;;;;;1.30;1.20;;;;;;;20.89;55.73;100816.16;107270;1254;25366;-48
2023/07/28 00:08:08;;;;;;;4.00;1.40;;;;;;;20.87;55.67;100817.89;107224;1254;25366;-48
2023/07/28 00:10:42;;;;;;;1.70;1.10;;;;;;;20.85;55.70;100817.96;107149;1264;25376;-48
2023/07/28 00:13:09;;;;;;;1.50;1.40;;;;;;;20.87;55.87;100824.20;107235;1254;25408;-49
2023/07/28 00:15:36;;;;;;;1.20;1.10;;;;;;;20.87;55.75;100829.87;106920;1266;25331;-48
2023/07/28 00:18:03;;;;;;;1.00;1.00;;;;;;;20.87;55.70;100837.24;106953;1254;25328;-48
2023/07/28 00:20:30;;;;;;;2.00;1.30;;;;;;;20.87;55.65;100835.64;107100;1254;25440;-49
2023/07/28 00:22:57;;;;;;;1.30;1.20;;;;;;;20.87;55.38;100830.92;106383;1250;1002986;-48
2023/07/28 00:25:24;;;;;;;5.30;1.30;;;;;;;20.85;55.45;100835.62;107112;1264;22524;-48
2023/07/28 00:27:51;;;;;;;1.50;1.20;;;;;;;20.85;55.43;100832.98;107184;1257;25331;-49
2023/07/28 00:30:18;;;;;;;1.80;1.60;;;;;;;20.84;55.30;100835.48;106988;1262;25331;-48
2023/07/28 00:32:45;;;;;;;2.20;1.50;;;;;;;20.84;55.45;100832.67;106953;1262;25411;-48
2023/07/28 00:35:12;;;;;;;2.40;1.30;;;;;;;20.82;55.21;100832.96;107050;1254;24202;-48
2023/07/28 00:37:39;;;;;;;1.20;1.10;;;;;;;20.78;55.32;100834.96;106921;1256;25478;-48
2023/07/28 00:40:07;;;;;;;1.20;1.10;;;;;;;20.76;55.52;100833.39;106766;1266;25356;-49
2023/07/28 00:42:34;;;;;;;1.90;1.50;;;;;;;20.73;55.57;100832.84;106856;1253;25372;-48
2023/07/28 00:45:04;;;;;;;1.20;1.00;;;;;;;20.72;55.70;100835.55;107251;1255;25367;-48
2023/07/28 00:47:32;;;;;;;1.60;1.30;;;;;;;20.73;55.66;100832.85;107173;1262;25347;-49
2023/07/28 00:49:59;;;;;;;1.30;1.20;;;;;;;20.74;55.51;100835.59;107129;1254;25487;-48
2023/07/28 00:52:26;;;;;;;1.70;1.10;;;;;;;20.74;55.48;100840.91;107108;1264;25366;-48
2023/07/28 00:54:53;;;;;;;1.40;1.20;;;;;;;20.72;55.26;100841.04;106936;1261;25375;-48
2023/07/28 00:57:20;;;;;;;1.20;1.10;;;;;;;20.70;55.24;100845.20;107046;1253;25478;-48
2023/07/28 00:59:47;;;;;;;1.20;1.00;;;;;;;20.69;55.45;100848.29;106982;1256;25366;-48
2023/07/28 01:02:18;;;;;;;2.10;1.40;;;;;;;20.69;55.57;100844.06;106847;1259;25375;-48
2023/07/28 01:04:45;;;;;;;2.10;1.20;;;;;;;20.69;55.41;100854.98;107203;1253;25413;-48
2023/07/28 01:07:22;;;;;;;2.50;1.20;;;;;;;20.69;55.41;100856.56;107093;1253;25429;-48
2023/07/28 01:10:02;;;;;;;1.70;1.30;;;;;;;20.69;55.41;100858.28;106400;1253;1003052;-48
2023/07/28 01:12:30;;;;;;;1.40;1.30;;;;;;;20.72;55.39;100865.02;107211;1253;25481;-49
2023/07/28 01:14:57;;;;;;;1.30;1.20;;;;;;;20.72;55.26;100866.59;107167;1254;25363;-49
2023/07/28 01:17:24;;;;;;;1.50;1.30;;;;;;;20.71;55.31;100867.38;107181;1252;25359;-49
2023/07/28 01:19:51;;;;;;;1.60;1.20;;;;;;;20.69;55.38;100868.02;107090;1253;25350;-50
2023/07/28 01:22:43;;;;;;;2.40;1.10;;;;;;;20.67;55.23;100871.84;107055;1253;24224;-49
2023/07/28 01:25:36;;;;;;;1.60;1.30;;;;;;;20.63;55.23;100872.95;107092;1263;25341;-49
2023/07/28 01:28:03;;;;;;;2.30;1.00;;;;;;;20.61;55.48;100877.84;106831;1265;25350;-49
2023/07/28 01:30:30;;;;;;;1.90;0.90;;;;;;;20.61;55.62;100878.19;106930;1257;25583;-49
2023/07/28 01:32:57;;;;;;;1.30;1.00;;;;;;;20.62;55.31;100885.04;106735;1261;25369;-49
2023/07/28 01:35:25;;;;;;;2.80;1.20;;;;;;;20.60;55.24;100885.52;106790;1266;24216;-49
2023/07/28 01:37:53;;;;;;;1.80;1.00;;;;;;;20.58;55.04;100886.34;106607;1270;25468;-49
2023/07/28 01:40:20;;;;;;;1.30;1.20;;;;;;;20.56;55.13;100883.80;106710;1269;22627;-49
2023/07/28 01:42:46;;;;;;;1.50;1.30;;;;;;;20.55;55.04;100884.55;106765;1256;25415;-49
2023/07/28 01:45:13;;;;;;;1.30;1.10;;;;;;;20.54;55.23;100883.23;107009;1255;25369;-49
2023/07/28 01:47:41;;;;;;;1.40;1.30;;;;;;;20.54;55.07;100886.40;106913;1270;25359;-49
2023/07/28 01:50:08;;;;;;;1.70;1.30;;;;;;;20.53;55.13;100888.23;106835;1259;25484;-49
2023/07/28 01:52:34;;;;;;;1.40;1.20;;;;;;;20.52;55.18;100890.21;106738;1272;25477;-49
2023/07/28 01:55:02;;;;;;;1.50;1.20;;;;;;;20.50;55.04;100890.52;106842;1263;25481;-49
2023/07/28 01:57:33;;;;;;;2.20;1.30;;;;;;;20.48;54.94;100892.44;105305;1272;1003662;-49
2023/07/28 02:00:00;;;;;;;3.70;1.10;;;;;;;20.45;54.81;100899.30;106877;1272;25478;-49
2023/07/28 02:02:27;;;;;;;1.50;1.00;;;;;;;20.42;54.76;100904.23;107037;1260;25906;-49
2023/07/28 02:04:55;;;;;;;1.10;1.00;;;;;;;20.39;54.96;100905.45;107240;1256;25390;-49
2023/07/28 02:07:22;;;;;;;4.50;1.10;;;;;;;20.37;55.03;100908.92;106984;1254;25471;-49
2023/07/28 02:09:49;;;;;;;2.60;1.20;;;;;;;20.36;55.05;100909.89;106940;1254;25357;-51
2023/07/28 02:12:16;;;;;;;2.70;1.30;;;;;;;20.35;55.21;100912.41;106897;1254;25478;-51
2023/07/28 02:14:43;;;;;;;2.50;1.40;;;;;;;20.36;55.29;100916.02;106916;1254;25365;-50
2023/07/28 02:17:10;;;;;;;1.40;1.20;;;;;;;20.38;55.40;100921.05;106735;1269;25359;-48
2023/07/28 02:19:37;;;;;;;2.70;1.50;;;;;;;20.40;55.18;100925.70;106679;1269;25449;-50
2023/07/28 02:22:05;;;;;;;1.60;1.20;;;;;;;20.40;55.09;100923.77;107144;1260;25366;-50
2023/07/28 02:24:33;;;;;;;2.00;1.20;;;;;;;20.38;54.84;100922.24;107035;1267;23858;-49
2023/07/28 02:27:00;;;;;;;1.50;1.20;;;;;;;20.36;54.87;100922.19;107238;1261;25440;-48
2023/07/28 02:29:27;;;;;;;2.20;1.50;;;;;;;20.36;54.77;100929.11;107047;1257;25328;-48
2023/07/28 02:31:54;;;;;;;2.60;1.60;;;;;;;20.34;54.77;100934.13;107192;1257;23577;-48
2023/07/28 02:34:21;;;;;;;3.10;1.30;;;;;;;20.32;54.89;100934.24;107128;1263;25414;-48
2023/07/28 02:36:48;;;;;;;1.60;1.10;;;;;;;20.31;54.94;100933.98;107206;1261;25347;-48
2023/07/28 02:39:15;;;;;;;1.10;1.00;;;;;;;20.30;54.81;100934.89;107172;1253;25347;-48
2023/07/28 02:41:42;;;;;;;1.20;0.90;;;;;;;20.30;54.39;100936.30;107151;1256;25523;-48
2023/07/28 02:44:09;;;;;;;1.20;1.10;;;;;;;20.29;54.28;100935.69;107044;1264;24213;-48
2023/07/28 02:46:37;;;;;;;2.10;1.10;;;;;;;20.28;54.16;100940.83;107115;1250;23868;-48
2023/07/28 02:49:04;;;;;;;2.10;0.80;;;;;;;20.28;53.95;100942.98;107127;1255;25375;-48
2023/07/28 02:51:33;;;;;;;2.20;1.10;;;;;;;20.27;54.09;100948.98;106977;1265;25375;-48
2023/07/28 02:54:00;;;;;;;2.50;1.50;;;;;;;20.26;54.13;100951.48;107126;1254;25366;-47
2023/07/28 02:56:27;;;;;;;2.30;1.20;;;;;;;20.27;54.12;100950.42;106786;1266;22637;-48
2023/07/28 02:58:54;;;;;;;2.60;1.40;;;;;;;20.24;54.05;100952.86;107146;1254;22531;-48
2023/07/28 03:01:21;;;;;;;1.40;1.30;;;;;;;20.20;54.01;100953.27;107158;1264;25405;-48
2023/07/28 03:03:48;;;;;;;2.30;1.00;;;;;;;20.14;54.26;100956.23;107150;1253;25366;-48
2023/07/28 03:06:15;;;;;;;0.80;0.80;;;;;;;20.14;54.39;100954.68;107196;1260;25350;-49
2023/07/28 03:08:42;;;;;;;2.30;1.30;;;;;;;20.14;54.35;100957.65;107152;1254;25449;-48
2023/07/28 03:11:36;;;;;;;1.80;1.40;;;;;;;20.13;54.43;100954.55;106881;1269;24252;-48
2023/07/28 03:14:03;;;;;;;2.30;1.20;;;;;;;20.11;54.52;100954.52;107163;1254;22659;-48
2023/07/28 03:16:30;;;;;;;1.60;1.20;;;;;;;20.09;54.78;100954.79;107179;1254;25375;-48
2023/07/28 03:18:57;;;;;;;1.40;1.20;;;;;;;20.10;54.73;100958.98;106791;1260;25536;-49
2023/07/28 03:21:24;;;;;;;1.20;1.10;;;;;;;20.10;54.62;100963.74;106836;1259;25356;-48
2023/07/28 03:23:51;;;;;;;1.40;1.20;;;;;;;20.10;54.84;100967.25;106799;1262;25491;-48
2023/07/28 03:26:18;;;;;;;3.60;1.60;;;;;;;20.09;54.90;100965.86;107131;1251;22659;-49
2023/07/28 03:28:45;;;;;;;1.20;1.10;;;;;;;20.08;54.89;100965.08;107133;1265;25337;-49
2023/07/28 03:31:12;;;;;;;2.00;1.20;;;;;;;20.06;55.01;100965.52;107140;1261;25309;-48
2023/07/28 03:33:39;;;;;;;2.20;1.40;;;;;;;20.03;55.04;100969.23;107112;1263;25350;-49
2023/07/28 03:36:06;;;;;;;1.90;1.30;;;;;;;20.01;55.31;100974.44;107223;1263;25393;-48
2023/07/28 03:38:33;;;;;;;1.80;1.40;;;;;;;19.99;55.42;100975.82;107202;1263;25491;-48
2023/07/28 03:41:00;;;;;;;2.40;1.30;;;;;;;19.98;55.54;100976.71;106949;1258;25362;-48
2023/07/28 03:43:27;;;;;;;1.40;1.30;;;;;;;19.99;55.87;100977.58;106748;1276;25484;-49
2023/07/28 03:45:54;;;;;;;2.30;1.20;;;;;;;20.07;55.93;100977.11;106793;1256;25372;-48
2023/07/28 03:48:21;;;;;;;2.90;1.70;;;;;;;20.21;55.78;100976.30;106790;1266;25439;-49
2023/07/28 03:50:48;;;;;;;3.90;1.40;;;;;;;20.37;55.35;100982.61;106828;1259;25427;-48
2023/07/28 03:53:15;;;;;;;2.90;1.00;;;;;;;20.51;54.75;100985.30;106530;1267;22537;-49
2023/07/28 03:55:42;;;;;;;3.90;1.50;;;;;;;20.62;54.56;100980.91;106438;1260;25488;-49
2023/07/28 03:58:09;;;;;;;1.90;1.40;;;;;;;20.76;54.36;100981.98;106434;1259;24222;-49
2023/07/28 04:00:36;;;;;;;1.80;1.40;;;;;;;20.93;54.23;100985.36;106515;1264;25344;-48
2023/07/28 04:03:03;;;;;;;1.50;1.20;;;;;;;21.19;53.45;100989.95;106304;1258;25497;-48
2023/07/28 04:05:30;;;;;;;1.50;1.10;;;;;;;21.44;52.75;100988.55;106368;1261;25430;-49
2023/07/28 04:07:57;;;;;;;1.30;1.20;;;;;;;21.58;52.26;100988.75;106621;1261;25519;-49
2023/07/28 04:10:24;;;;;;;3.50;1.40;;;;;;;21.61;51.96;100989.75;106751;1259;25362;-48
2023/07/28 04:12:51;;;;;;;1.50;1.20;;;;;;;21.57;51.61;100993.57;106769;1256;25422;-49
2023/07/28 04:15:18;;;;;;;1.50;1.40;;;;;;;21.46;51.72;100996.72;106707;1262;25361;-49
2023/07/28 04:17:45;;;;;;;2.80;1.20;;;;;;;21.38;52.14;100993.17;106669;1267;25341;-50
2023/07/28 04:20:12;;;;;;;3.80;1.20;;;;;;;21.33;52.38;100994.92;107024;1262;25423;-49
2023/07/28 04:22:39;;;;;;;2.00;1.20;;;;;;;21.28;52.28;101002.48;107029;1263;25341;-48
2023/07/28 04:25:07;;;;;;;1.30;1.10;;;;;;;21.21;52.27;101003.94;107170;1264;25417;-48
2023/07/28 04:27:34;;;;;;;1.40;1.30;;;;;;;21.15;52.32;101009.27;106989;1259;25341;-49
2023/07/28 04:30:03;;;;;;;2.90;1.40;;;;;;;21.08;52.61;101009.89;107198;1251;22527;-48
2023/07/28 04:32:30;;;;;;;2.20;1.30;;;;;;;21.05;52.95;101013.41;107115;1254;25416;-49
2023/07/28 04:35:00;;;;;;;2.00;1.40;;;;;;;21.02;52.84;101014.25;107185;1260;22509;-48
2023/07/28 04:37:47;;;;;;;2.10;1.30;;;;;;;21.00;53.21;101017.16;106934;1266;22520;-49
2023/07/28 04:40:22;;;;;;;1.40;1.30;;;;;;;21.00;53.42;101012.40;106917;1267;25511;-49
2023/07/28 04:42:52;;;;;;;1.60;1.30;;;;;;;21.02;53.43;101010.23;106360;1256;1003816;-48
2023/07/28 04:45:19;;;;;;;2.50;1.40;;;;;;;21.03;53.38;101010.69;107130;1253;25455;-49
2023/07/28 04:47:47;;;;;;;1.40;1.30;;;;;;;21.05;53.41;101014.09;107167;1254;25341;-48
2023/07/28 04:50:14;;;;;;;2.20;1.50;;;;;;;21.08;53.20;101019.57;107138;1263;25437;-49
2023/07/28 04:53:10;;;;;;;1.40;1.30;;;;;;;21.10;53.01;101024.27;106668;1269;25532;-48
2023/07/28 04:55:42;;;;;;;3.90;1.50;;;;;;;21.10;53.14;101026.02;106863;1254;25366;-48
2023/07/28 04:58:09;;;;;;;5.80;1.70;;;;;;;21.10;52.94;101030.75;106671;1259;25487;-48
2023/07/28 05:00:46;;;;;;;2.70;1.30;;;;;;;21.12;52.82;101034.91;106824;1258;25809;-49
2023/07/28 05:03:13;;;;;;;1.70;1.40;;;;;;;21.13;53.08;101032.49;107035;1263;25487;-48
2023/07/28 05:05:45;;;;;;;1.40;1.30;;;;;;;21.17;52.89;101028.92;107145;1263;25853;-50
2023/07/28 05:08:13;;;;;;;1.30;1.20;;;;;;;21.18;52.89;101028.84;107231;1251;22536;-48
2023/07/28 05:10:41;;;;;;;2.80;1.40;;;;;;;21.18;52.96;101030.60;107136;1266;25340;-48
2023/07/28 05:13:08;;;;;;;1.60;1.20;;;;;;;21.19;53.04;101026.30;107156;1263;22556;-49
2023/07/28 05:15:35;;;;;;;2.50;1.60;;;;;;;21.20;53.02;101028.89;107156;1251;22521;-48
2023/07/28 05:18:03;;;;;;;1.60;1.50;;;;;;;21.23;52.89;101025.05;106944;1263;22637;-49
2023/07/28 05:20:41;;;;;;;3.90;1.40;;;;;;;21.24;52.50;101022.48;106941;1266;25529;-49
2023/07/28 05:23:11;;;;;;;3.40;1.70;;;;;;;21.27;52.51;101025.50;107105;1263;25417;-49
2023/07/28 05:25:38;;;;;;;2.20;1.50;;;;;;;21.31;52.43;101024.84;107101;1262;22530;-48
2023/07/28 05:28:05;;;;;;;2.20;1.50;;;;;;;21.41;52.37;101027.26;107038;1259;25484;-49
2023/07/28 05:30:33;;;;;;;1.60;1.50;;;;;;;21.54;52.07;101023.05;107216;1257;25135;-49
2023/07/28 05:33:00;;;;;;;1.80;1.50;;;;;;;21.70;52.13;101027.00;107059;1257;25392;-49
2023/07/28 05:35:56;;;;;;;1.60;1.50;;;;;;;21.89;51.90;101023.66;107221;1261;25372;-49
2023/07/28 05:38:23;;;;;;;2.10;1.70;;;;;;;22.09;51.67;101020.73;107085;1257;25341;-49
2023/07/28 05:40:57;;;;;;;2.20;1.50;;;;;;;22.30;51.18;101020.59;107098;1263;25396;-48
2023/07/28 05:43:23;;;;;;;2.70;1.20;;;;;;;22.54;50.33;101026.94;107030;1260;24358;-48
2023/07/28 05:45:51;;;;;;;4.00;1.30;;;;;;;22.73;49.34;101024.96;107134;1263;25375;-49
2023/07/28 05:48:18;;;;;;;2.80;1.40;;;;;;;22.88;48.64;101031.38;107144;1254;25338;-49
2023/07/28 05:50:45;;;;;;;2.70;1.20;;;;;;;23.01;48.73;101034.86;107261;1254;25350;-49
2023/07/28 05:53:13;;;;;;;1.50;1.30;;;;;;;23.19;48.02;101033.92;106801;1259;25402;-48
2023/07/28 05:55:41;;;;;;;3.20;1.40;;;;;;;23.37;47.44;101033.97;107261;1260;25340;-49
2023/07/28 05:58:08;;;;;;;1.50;1.10;;;;;;;23.53;47.08;101032.29;107154;1254;25487;-49
2023/07/28 06:00:40;;;;;;;2.30;1.40;;;;;;;23.72;46.91;101032.30;107060;1263;26506;-48
2023/07/28 06:03:10;;;;;;;2.30;1.40;;;;;;;23.89;45.63;101031.93;107116;1254;25281;-49
2023/07/28 06:05:54;;;;;;;1.70;1.50;;;;;;;23.98;45.94;101035.02;107248;1254;25405;-49
2023/07/28 06:08:21;;;;;;;2.60;1.40;;;;;;;24.06;45.59;101038.86;107104;1254;25369;-49
2023/07/28 06:10:48;;;;;;;2.70;1.60;;;;;;;24.15;45.23;101040.70;107225;1266;25368;-49
2023/07/28 06:13:15;;;;;;;2.70;1.80;;;;;;;24.24;44.48;101047.12;106902;1266;25369;-49
2023/07/28 06:15:42;;;;;;;1.70;1.30;;;;;;;24.28;44.31;101053.39;107138;1257;25353;-49
2023/07/28 06:18:10;;;;;;;3.60;1.30;;;;;;;24.32;43.98;101052.71;107034;1265;25440;-49
2023/07/28 06:20:37;;;;;;;1.50;1.40;;;;;;;24.31;44.21;101058.86;106992;1269;25341;-48
2023/07/28 06:23:04;;;;;;;3.00;1.40;;;;;;;24.28;44.15;101055.72;107213;1261;24231;-49
2023/07/28 06:25:32;;;;;;;1.60;1.30;;;;;;;24.23;43.93;101055.72;107168;1260;25341;-49
2023/07/28 06:28:01;;;;;;;1.80;1.30;;;;;;;24.15;44.30;101060.54;107059;1263;25368;-49
2023/07/28 06:30:30;;;;;;;1.70;1.60;;;;;;;24.09;44.49;101055.64;107095;1263;25402;-49
2023/07/28 06:32:58;;;;;;;1.70;1.60;;;;;;;24.04;45.01;101060.80;106928;1267;25353;-49
2023/07/28 06:35:25;;;;;;;2.90;1.60;;;;;;;23.99;44.35;101068.09;106892;1263;22537;-49
2023/07/28 06:37:52;;;;;;;3.30;2.10;;;;;;;23.91;43.90;101065.48;106937;1263;25329;-48
2023/07/28 06:40:20;;;;;;;3.00;1.50;;;;;;;23.83;44.62;101066.77;106918;1263;25370;-48
2023/07/28 06:42:47;;;;;;;2.00;1.40;;;;;;;23.76;45.45;101068.14;106860;1254;24160;-48
2023/07/28 06:45:14;;;;;;;2.30;1.90;;;;;;;23.75;45.25;101066.29;106844;1261;25466;-48
2023/07/28 06:47:41;;;;;;;3.60;1.50;;;;;;;23.73;44.98;101063.45;107122;1256;25347;-48
2023/07/28 06:50:09;;;;;;;2.00;1.40;;;;;;;23.68;45.60;101070.38;106967;1251;25385;-49
2023/07/28 06:52:36;;;;;;;3.20;1.90;;;;;;;23.62;45.83;101067.60;106672;1256;22533;-48
2023/07/28 06:55:03;;;;;;;1.90;1.60;;;;;;;23.59;45.52;101072.40;106873;1263;25372;-49
2023/07/28 06:57:31;;;;;;;2.60;1.50;;;;;;;23.58;45.59;101070.38;106853;1256;25429;-48
2023/07/28 07:00:00;;;;;;;2.20;1.50;;;;;;;23.59;46.48;101070.11;106972;1263;25356;-48
2023/07/28 07:02:27;;;;;;;2.10;1.70;;;;;;;23.60;46.65;101075.67;107148;1263;25350;-48
2023/07/28 07:04:55;;;;;;;3.90;1.70;;;;;;;23.63;46.95;101078.86;107297;1261;25331;-48
2023/07/28 07:07:22;;;;;;;1.80;1.30;;;;;;;23.64;46.52;101080.36;107172;1263;25366;-49
2023/07/28 07:09:49;;;;;;;4.20;1.80;;;;;;;23.65;46.45;101085.08;107070;1253;25490;-50
2023/07/28 07:12:16;;;;;;;2.80;1.70;;;;;;;23.68;45.89;101085.08;107172;1263;25513;-49
2023/07/28 07:14:44;;;;;;;2.00;1.60;;;;;;;23.69;45.22;101092.02;107189;1263;25366;-48
2023/07/28 07:17:11;;;;;;;1.90;1.50;;;;;;;23.74;45.89;101099.98;107167;1257;25365;-48
2023/07/28 07:19:38;;;;;;;4.00;1.70;;;;;;;23.83;46.41;101101.16;106934;1257;25418;-49
2023/07/28 07:22:06;;;;;;;3.20;1.70;;;;;;;23.95;45.99;101101.52;107088;1269;25388;-49
2023/07/28 07:24:33;;;;;;;2.90;2.00;;;;;;;24.13;45.73;101102.39;107014;1269;25418;-49
2023/07/28 07:27:00;;;;;;;1.80;1.70;;;;;;;24.33;44.56;101101.45;106825;1266;25331;-49
2023/07/28 07:29:26;;;;;;;2.40;1.50;;;;;;;24.51;44.70;101101.50;107129;1254;25400;-49
2023/07/28 07:31:55;;;;;;;2.20;1.50;;;;;;;24.68;44.27;101104.81;107058;1257;25440;-49
2023/07/28 07:34:23;;;;;;;1.90;1.60;;;;;;;24.82;44.77;101105.52;107113;1263;25414;-49
2023/07/28 07:36:50;;;;;;;2.40;1.70;;;;;;;24.88;44.12;101102.77;107088;1263;25366;-49
2023/07/28 07:39:17;;;;;;;1.50;1.40;;;;;;;24.88;43.51;101102.96;107142;1257;25522;-48
2023/07/28 07:41:44;;;;;;;2.80;1.50;;;;;;;24.86;42.47;101097.98;107216;1253;25365;-48
2023/07/28 07:44:11;;;;;;;2.30;1.70;;;;;;;24.85;42.99;101109.77;106957;1256;25359;-49
2023/07/28 07:46:38;;;;;;;3.00;1.50;;;;;;;24.85;42.79;101107.30;106852;1266;25399;-49
2023/07/28 07:49:05;;;;;;;1.90;1.20;;;;;;;24.83;43.21;101108.10;107000;1267;22514;-48
2023/07/28 07:51:34;;;;;;;1.90;1.60;;;;;;;24.81;43.08;101112.38;107006;1266;25408;-48
2023/07/28 07:54:01;;;;;;;2.00;1.60;;;;;;;24.77;41.77;101113.77;107104;1253;25366;-48
2023/07/28 07:56:28;;;;;;;3.40;1.40;;;;;;;24.73;42.03;101111.54;106938;1254;25339;-48
2023/07/28 07:58:55;;;;;;;1.70;1.50;;;;;;;24.70;42.16;101114.61;106921;1263;25359;-49
2023/07/28 08:01:22;;;;;;;1.60;1.50;;;;;;;24.69;42.49;101117.36;107077;1253;25472;-49
2023/07/28 08:03:49;;;;;;;2.80;1.60;;;;;;;24.71;43.01;101117.73;106971;1263;24394;-48
2023/07/28 08:06:17;;;;;;;2.70;1.50;;;;;;;24.72;43.33;101118.69;106829;1257;24198;-49
2023/07/28 08:08:45;;;;;;;2.40;1.40;;;;;;;24.75;43.58;101118.89;106716;1260;24192;-48
2023/07/28 08:11:12;;;;;;;2.50;1.30;;;;;;;24.75;43.26;101124.20;106839;1257;25408;-48
2023/07/28 08:13:39;;;;;;;2.10;1.60;;;;;;;24.77;43.09;101121.94;107090;1253;25365;-49
2023/07/28 08:16:06;;;;;;;3.20;1.80;;;;;;;24.79;43.60;101123.56;106370;1256;1003436;-48
2023/07/28 08:18:33;;;;;;;1.80;1.40;;;;;;;24.81;43.20;101127.63;107232;1254;24208;-48
2023/07/28 08:21:00;;;;;;;2.10;1.60;;;;;;;24.83;42.95;101120.03;107129;1263;25363;-49
2023/07/28 08:23:27;;;;;;;1.60;1.50;;;;;;;24.86;42.05;101121.59;107263;1254;25340;-48
2023/07/28 08:25:55;;;;;;;2.30;1.50;;;;;;;24.90;41.85;101124.81;107158;1267;23319;-48
2023/07/28 08:28:24;;;;;;;1.60;1.40;;;;;;;24.95;43.00;101127.43;107055;1264;22518;-47
2023/07/28 08:30:56;;;;;;;3.50;1.40;;;;;;;25.01;43.66;101128.23;107139;1257;25366;-48
2023/07/28 08:33:23;;;;;;;2.10;1.50;;;;;;;25.07;42.66;101122.27;107242;1253;22511;-48
2023/07/28 08:35:50;;;;;;;2.20;1.80;;;;;;;25.13;41.73;101127.11;107085;1254;25487;-48
2023/07/28 08:38:17;;;;;;;2.60;1.30;;;;;;;25.19;41.43;101123.47;107054;1263;25365;-48
2023/07/28 08:40:45;;;;;;;2.30;1.10;;;;;;;25.22;41.49;101126.81;106953;1269;25417;-48
2023/07/28 08:43:12;;;;;;;3.10;1.30;;;;;;;25.25;41.81;101129.08;107085;1263;25359;-48
2023/07/28 08:45:39;;;;;;;2.10;1.40;;;;;;;25.29;41.49;101129.05;107177;1255;25366;-48
2023/07/28 08:48:06;;;;;;;2.30;1.30;;;;;;;25.34;41.03;101129.41;107269;1261;25417;-48
2023/07/28 08:50:34;;;;;;;2.90;1.60;;;;;;;25.38;41.51;101126.23;107175;1256;25346;-48
2023/07/28 08:53:01;;;;;;;2.10;1.50;;;;;;;25.45;41.06;101127.30;106680;1259;25484;-50
2023/07/28 08:55:28;;;;;;;1.80;1.40;;;;;;;25.54;41.10;101126.08;106887;1272;25332;-49
2023/07/28 08:57:55;;;;;;;1.90;1.60;;;;;;;25.63;41.09;101122.49;106962;1270;25418;-49
2023/07/28 09:00:22;;;;;;;2.40;1.60;;;;;;;25.68;40.45;101123.50;107133;1259;23886;-49
2023/07/28 09:02:50;;;;;;;2.20;1.50;;;;;;;25.69;40.99;101124.33;107025;1256;26580;-49
2023/07/28 09:05:19;;;;;;;2.60;1.50;;;;;;;25.70;41.60;101125.16;106963;1253;25319;-48
2023/07/28 09:07:47;;;;;;;4.80;1.40;;;;;;;25.72;41.33;101133.36;107093;1253;23202;-49
2023/07/28 09:10:14;;;;;;;2.90;1.50;;;;;;;25.74;41.51;101127.15;106339;1266;24433;-49
2023/07/28 09:12:48;;;;;;;1.80;1.60;;;;;;;25.77;41.92;101131.01;106375;1269;22530;-49
2023/07/28 09:15:16;;;;;;;1.30;1.20;;;;;;;25.81;41.67;101130.09;106561;1262;25436;-49
2023/07/28 09:17:44;;;;;;;1.30;1.20;;;;;;;25.87;41.56;101121.50;106704;1260;25379;-49
2023/07/28 09:20:15;;;;;;;3.10;1.40;;;;;;;25.92;42.00;101118.83;106512;1263;25369;-49
2023/07/28 09:22:43;;;;;;;3.00;1.90;;;;;;;25.94;42.22;101122.77;106691;1257;22608;-49
2023/07/28 09:25:12;;;;;;;2.70;1.80;;;;;;;25.93;41.87;101129.02;106677;1273;24199;-50
2023/07/28 09:27:39;;;;;;;3.30;1.70;;;;;;;25.91;41.56;101125.83;106838;1261;24220;-49
2023/07/28 09:30:07;;;;;;;2.40;1.70;;;;;;;25.93;41.87;101127.98;107008;1269;25414;-50
2023/07/28 09:32:36;;;;;;;2.20;1.30;;;;;;;25.96;41.86;101136.81;107118;1267;25404;-49
2023/07/28 09:35:09;;;;;;;1.30;1.10;;;;;;;25.98;42.36;101134.52;107086;1254;25372;-49
2023/07/28 09:37:37;;;;;;;2.50;1.50;;;;;;;26.00;41.30;101131.80;107242;1263;25517;-49
2023/07/28 09:40:09;;;;;;;2.30;1.70;;;;;;;26.03;40.73;101128.38;106998;1256;24199;-49
2023/07/28 09:42:44;;;;;;;3.40;1.10;;;;;;;26.07;41.07;101128.07;106840;1257;25341;-49
2023/07/28 09:45:11;;;;;;;1.60;1.50;;;;;;;26.11;40.43;101132.19;106894;1253;25379;-49
2023/07/28 09:47:59;;;;;;;1.80;1.30;;;;;;;26.17;40.35;101134.23;107002;1254;24204;-49
2023/07/28 09:50:27;;;;;;;1.50;1.20;;;;;;;26.21;40.37;101130.55;107039;1263;22555;-49
2023/07/28 09:52:54;;;;;;;3.70;1.60;;;;;;;26.24;40.19;101133.27;106778;1258;24269;-49
2023/07/28 09:55:21;;;;;;;1.40;1.30;;;;;;;26.27;39.97;101134.96;106810;1254;25519;-49
2023/07/28 09:57:53;;;;;;;3.00;1.60;;;;;;;26.30;40.13;101142.21;106804;1260;25350;-49
2023/07/28 10:00:21;;;;;;;3.60;1.60;;;;;;;26.32;39.54;101135.66;107212;1253;24267;-49
2023/07/28 10:02:49;;;;;;;1.80;1.30;;;;;;;26.34;38.62;101141.88;107172;1254;25398;-49
2023/07/28 10:05:16;;;;;;;2.50;1.40;;;;;;;26.38;38.38;101143.31;107239;1260;25331;-49
2023/07/28 10:07:44;;;;;;;1.50;1.30;;;;;;;26.42;38.67;101144.27;107200;1254;26101;-50
2023/07/28 10:10:13;;;;;;;1.90;1.40;;;;;;;26.46;38.97;101151.38;107178;1263;25265;-49
2023/07/28 10:12:42;;;;;;;1.30;1.20;;;;;;;26.50;38.32;101153.53;107139;1266;23002;-48
2023/07/28 10:15:12;;;;;;;2.00;1.30;;;;;;;26.55;38.63;101146.31;107077;1263;25325;-49
2023/07/28 10:17:40;;;;;;;2.10;1.60;;;;;;;26.59;38.44;101143.86;107062;1266;23151;-49
2023/07/28 10:20:30;;;;;;;3.10;1.10;;;;;;;26.60;38.50;101146.63;107088;1270;25408;-49
2023/07/28 10:23:13;;;;;;;2.90;1.30;;;;;;;26.63;38.88;101140.70;107217;1264;22519;-49
2023/07/28 10:25:41;;;;;;;1.40;1.20;;;;;;;26.69;38.83;101143.45;106401;1256;1003328;-50
2023/07/28 10:28:25;;;;;;;1.50;1.30;;;;;;;26.71;38.62;101145.52;107155;1255;22559;-49
2023/07/28 10:30:53;;;;;;;2.00;1.50;;;;;;;26.72;38.77;101137.66;107197;1267;22634;-49
2023/07/28 10:33:46;;;;;;;2.10;1.50;;;;;;;26.73;37.33;101139.89;107194;1267;23819;-48
2023/07/28 10:36:22;;;;;;;1.60;1.40;;;;;;;26.77;37.73;101146.30;106702;1269;25376;-48
2023/07/28 10:39:17;;;;;;;1.40;1.30;;;;;;;26.79;38.64;101143.71;106733;1263;25366;-48
2023/07/28 10:42:04;;;;;;;1.50;1.40;;;;;;;26.82;38.77;101142.53;106724;1262;25591;-48
2023/07/28 10:44:31;;;;;;;2.10;1.60;;;;;;;26.83;37.56;101143.54;106698;1262;23864;-49
2023/07/28 10:46:58;;;;;;;2.30;1.60;;;;;;;26.84;37.25;101143.56;106481;1272;24218;-49
2023/07/28 10:49:26;;;;;;;2.70;1.40;;;;;;;26.87;37.92;101144.94;106596;1270;25586;-50
2023/07/28 10:51:53;;;;;;;1.50;1.40;;;;;;;26.88;37.55;101146.50;106671;1273;24256;-48
2023/07/28 10:54:20;;;;;;;3.70;1.50;;;;;;;26.89;37.81;101147.63;106625;1272;25417;-51
2023/07/28 10:56:48;;;;;;;2.80;1.50;;;;;;;26.92;37.98;101142.23;106611;1263;25366;-48
2023/07/28 10:59:15;;;;;;;1.50;1.30;;;;;;;26.96;38.57;101132.98;106778;1272;25497;-48
2023/07/28 11:01:42;;;;;;;3.00;1.50;;;;;;;27.02;38.70;101135.13;106608;1270;25343;-48
2023/07/28 11:04:19;;;;;;;1.30;1.20;;;;;;;27.07;37.98;101136.31;106770;1262;25421;-49
2023/07/28 11:06:48;;;;;;;2.10;1.30;;;;;;;27.11;37.20;101133.45;106627;1263;25348;-49
2023/07/28 11:09:19;;;;;;;2.90;2.00;;;;;;;27.14;36.84;101135.70;106718;1260;25337;-49
2023/07/28 11:11:46;;;;;;;2.40;1.70;;;;;;;27.16;36.01;101136.41;106406;1269;24376;-49
2023/07/28 11:14:15;;;;;;;1.50;1.40;;;;;;;27.20;35.75;101141.92;107537;1262;25332;-49
2023/07/28 11:16:44;;;;;;;1.90;1.40;;;;;;;27.25;36.14;101136.88;107169;1260;25481;-48
2023/07/28 11:19:12;;;;;;;2.00;1.40;;;;;;;27.31;37.09;101140.83;107574;1267;25341;-48
2023/07/28 11:21:40;;;;;;;2.00;1.50;;;;;;;27.34;37.54;101140.41;107091;1253;22643;-49
2023/07/28 11:24:08;;;;;;;1.40;1.30;;;;;;;27.37;38.12;101139.61;107122;1263;24262;-48